sensor_id;sensor_type;location;lat;lon;timestamp;P1;durP1;ratioP1;P2;durP2;ratioP2
19187;SDS011;9726;52.198;8.792;2022-12-10T00:01:44;192.23;;;44.23;;
19187;SDS011;9726;52.198;8.792;2022-12-10T00:04:13;376.50;;;56.27;;
19187;SDS011;9726;52.198;8.792;2022-12-10T00:06:41;123.10;;;44.57;;
19187;SDS011;9726;52.198;8.792;2022-12-10T00:09:14;171.70;;;44.00;;
19187;SDS011;9726;52.198;8.792;2022-12-10T00:11:42;141.67;;;44.40;;
19187;SDS011;9726;52.198;8.792;2022-12-10T00:14:10;104.93;;;42.57;;
19187;SDS011;9726;52.198;8.792;2022-12-10T00:16:38;175.13;;;45.73;;
19187;SDS011;9726;52.198;8.792;2022-12-10T00:19:06;112.00;;;42.20;;
19187;SDS011;9726;52.198;8.792;2022-12-10T00:21:34;98.50;;;41.33;;
19187;SDS011;9726;52.198;8.792;2022-12-10T00:24:02;98.37;;;40.53;;
19187;SDS011;9726;52.198;8.792;2022-12-10T00:26:36;97.27;;;42.33;;
19187;SDS011;9726;52.198;8.792;2022-12-10T00:29:05;88.27;;;38.20;;
19187;SDS011;9726;52.198;8.792;2022-12-10T00:31:34;100.60;;;40.27;;
19187;SDS011;9726;52.198;8.792;2022-12-10T00:34:03;131.32;;;57.72;;
19187;SDS011;9726;52.198;8.792;2022-12-10T00:36:32;116.67;;;48.00;;
19187;SDS011;9726;52.198;8.792;2022-12-10T00:39:00;97.73;;;43.43;;
19187;SDS011;9726;52.198;8.792;2022-12-10T00:41:28;94.03;;;39.93;;
19187;SDS011;9726;52.198;8.792;2022-12-10T00:43:55;96.23;;;43.53;;
19187;SDS011;9726;52.198;8.792;2022-12-10T00:46:23;97.30;;;40.30;;
19187;SDS011;9726;52.198;8.792;2022-12-10T00:48:51;89.23;;;39.50;;
19187;SDS011;9726;52.198;8.792;2022-12-10T00:51:22;98.20;;;40.80;;
19187;SDS011;9726;52.198;8.792;2022-12-10T00:53:50;100.13;;;42.13;;
19187;SDS011;9726;52.198;8.792;2022-12-10T00:56:19;102.77;;;41.70;;
19187;SDS011;9726;52.198;8.792;2022-12-10T00:58:47;96.97;;;39.53;;
19187;SDS011;9726;52.198;8.792;2022-12-10T01:01:28;103.90;;;42.30;;
19187;SDS011;9726;52.198;8.792;2022-12-10T01:03:58;96.07;;;41.93;;
19187;SDS011;9726;52.198;8.792;2022-12-10T01:06:33;104.93;;;41.70;;
19187;SDS011;9726;52.198;8.792;2022-12-10T01:09:05;97.10;;;38.93;;
19187;SDS011;9726;52.198;8.792;2022-12-10T01:11:34;88.07;;;40.00;;
19187;SDS011;9726;52.198;8.792;2022-12-10T01:14:04;101.80;;;41.53;;
19187;SDS011;9726;52.198;8.792;2022-12-10T01:16:32;89.90;;;40.37;;
19187;SDS011;9726;52.198;8.792;2022-12-10T01:19:00;101.40;;;41.60;;
19187;SDS011;9726;52.198;8.792;2022-12-10T01:21:28;87.73;;;41.13;;
19187;SDS011;9726;52.198;8.792;2022-12-10T01:23:56;95.57;;;43.43;;
19187;SDS011;9726;52.198;8.792;2022-12-10T01:26:26;95.03;;;40.50;;
19187;SDS011;9726;52.198;8.792;2022-12-10T01:28:54;83.77;;;39.30;;
19187;SDS011;9726;52.198;8.792;2022-12-10T01:31:26;103.10;;;38.97;;
19187;SDS011;9726;52.198;8.792;2022-12-10T01:33:54;89.03;;;40.53;;
19187;SDS011;9726;52.198;8.792;2022-12-10T01:36:23;83.50;;;38.87;;
19187;SDS011;9726;52.198;8.792;2022-12-10T01:38:51;102.47;;;42.33;;
19187;SDS011;9726;52.198;8.792;2022-12-10T01:41:20;99.63;;;40.90;;
19187;SDS011;9726;52.198;8.792;2022-12-10T01:46:18;100.70;;;41.57;;
19187;SDS011;9726;52.198;8.792;2022-12-10T01:48:46;96.97;;;41.90;;
19187;SDS011;9726;52.198;8.792;2022-12-10T01:51:13;90.03;;;41.33;;
19187;SDS011;9726;52.198;8.792;2022-12-10T01:53:42;89.50;;;39.33;;
19187;SDS011;9726;52.198;8.792;2022-12-10T01:56:09;96.97;;;44.80;;
19187;SDS011;9726;52.198;8.792;2022-12-10T01:58:37;92.63;;;41.30;;
19187;SDS011;9726;52.198;8.792;2022-12-10T02:01:10;91.60;;;41.60;;
19187;SDS011;9726;52.198;8.792;2022-12-10T02:03:44;95.90;;;40.13;;
19187;SDS011;9726;52.198;8.792;2022-12-10T02:06:17;97.77;;;42.70;;
19187;SDS011;9726;52.198;8.792;2022-12-10T02:08:56;102.63;;;43.57;;
19187;SDS011;9726;52.198;8.792;2022-12-10T02:14:23;88.43;;;40.70;;
19187;SDS011;9726;52.198;8.792;2022-12-10T02:16:56;96.10;;;41.43;;
19187;SDS011;9726;52.198;8.792;2022-12-10T02:19:49;94.37;;;41.33;;
19187;SDS011;9726;52.198;8.792;2022-12-10T02:22:16;95.40;;;42.57;;
19187;SDS011;9726;52.198;8.792;2022-12-10T02:24:44;99.10;;;41.63;;
19187;SDS011;9726;52.198;8.792;2022-12-10T02:27:16;98.70;;;41.63;;
19187;SDS011;9726;52.198;8.792;2022-12-10T02:29:46;90.73;;;41.70;;
19187;SDS011;9726;52.198;8.792;2022-12-10T02:32:19;101.83;;;40.93;;
19187;SDS011;9726;52.198;8.792;2022-12-10T02:34:50;99.53;;;42.10;;
19187;SDS011;9726;52.198;8.792;2022-12-10T02:37:23;103.63;;;43.07;;
19187;SDS011;9726;52.198;8.792;2022-12-10T02:39:55;99.53;;;42.77;;
19187;SDS011;9726;52.198;8.792;2022-12-10T02:42:26;103.40;;;43.50;;
19187;SDS011;9726;52.198;8.792;2022-12-10T02:44:55;99.50;;;43.60;;
19187;SDS011;9726;52.198;8.792;2022-12-10T02:47:24;104.97;;;41.90;;
19187;SDS011;9726;52.198;8.792;2022-12-10T02:49:53;104.80;;;44.80;;
19187;SDS011;9726;52.198;8.792;2022-12-10T02:52:25;107.37;;;42.57;;
19187;SDS011;9726;52.198;8.792;2022-12-10T02:54:53;94.37;;;41.67;;
19187;SDS011;9726;52.198;8.792;2022-12-10T03:00:09;99.70;;;41.97;;
19187;SDS011;9726;52.198;8.792;2022-12-10T03:07:53;96.80;;;42.60;;
19187;SDS011;9726;52.198;8.792;2022-12-10T03:12:55;99.00;;;44.70;;
19187;SDS011;9726;52.198;8.792;2022-12-10T03:15:24;103.93;;;44.90;;
19187;SDS011;9726;52.198;8.792;2022-12-10T03:17:52;100.40;;;42.33;;
19187;SDS011;9726;52.198;8.792;2022-12-10T03:20:21;106.47;;;45.97;;
19187;SDS011;9726;52.198;8.792;2022-12-10T03:22:49;97.03;;;44.03;;
19187;SDS011;9726;52.198;8.792;2022-12-10T03:25:20;99.63;;;46.87;;
19187;SDS011;9726;52.198;8.792;2022-12-10T03:27:51;107.97;;;46.63;;
19187;SDS011;9726;52.198;8.792;2022-12-10T03:30:21;104.27;;;45.30;;
19187;SDS011;9726;52.198;8.792;2022-12-10T03:32:48;105.70;;;46.83;;
19187;SDS011;9726;52.198;8.792;2022-12-10T03:35:17;102.80;;;45.83;;
19187;SDS011;9726;52.198;8.792;2022-12-10T03:37:45;101.80;;;44.50;;
19187;SDS011;9726;52.198;8.792;2022-12-10T03:40:12;105.83;;;45.40;;
19187;SDS011;9726;52.198;8.792;2022-12-10T03:42:40;105.60;;;45.17;;
19187;SDS011;9726;52.198;8.792;2022-12-10T03:45:07;111.83;;;48.63;;
19187;SDS011;9726;52.198;8.792;2022-12-10T03:47:35;111.13;;;45.97;;
19187;SDS011;9726;52.198;8.792;2022-12-10T03:50:03;109.70;;;46.17;;
19187;SDS011;9726;52.198;8.792;2022-12-10T03:52:30;111.87;;;46.50;;
19187;SDS011;9726;52.198;8.792;2022-12-10T03:54:58;99.17;;;47.67;;
19187;SDS011;9726;52.198;8.792;2022-12-10T03:57:25;110.40;;;45.77;;
19187;SDS011;9726;52.198;8.792;2022-12-10T03:59:53;99.13;;;44.20;;
19187;SDS011;9726;52.198;8.792;2022-12-10T04:02:20;96.53;;;43.30;;
19187;SDS011;9726;52.198;8.792;2022-12-10T04:04:48;102.87;;;45.67;;
19187;SDS011;9726;52.198;8.792;2022-12-10T04:07:15;105.30;;;47.20;;
19187;SDS011;9726;52.198;8.792;2022-12-10T04:09:43;107.40;;;45.07;;
19187;SDS011;9726;52.198;8.792;2022-12-10T04:12:10;101.80;;;45.27;;
19187;SDS011;9726;52.198;8.792;2022-12-10T04:14:38;107.70;;;45.53;;
19187;SDS011;9726;52.198;8.792;2022-12-10T04:17:25;104.73;;;44.53;;
19187;SDS011;9726;52.198;8.792;2022-12-10T04:19:52;102.40;;;47.10;;
19187;SDS011;9726;52.198;8.792;2022-12-10T04:22:19;102.13;;;46.00;;
19187;SDS011;9726;52.198;8.792;2022-12-10T04:25:05;95.83;;;45.00;;
19187;SDS011;9726;52.198;8.792;2022-12-10T04:27:54;97.17;;;43.13;;
19187;SDS011;9726;52.198;8.792;2022-12-10T04:30:21;108.70;;;45.63;;
19187;SDS011;9726;52.198;8.792;2022-12-10T04:32:48;96.60;;;45.47;;
19187;SDS011;9726;52.198;8.792;2022-12-10T04:35:16;98.67;;;45.13;;
19187;SDS011;9726;52.198;8.792;2022-12-10T04:37:43;99.43;;;44.23;;
19187;SDS011;9726;52.198;8.792;2022-12-10T04:40:11;105.77;;;47.10;;
19187;SDS011;9726;52.198;8.792;2022-12-10T04:42:38;103.83;;;44.10;;
19187;SDS011;9726;52.198;8.792;2022-12-10T04:45:06;90.10;;;43.33;;
19187;SDS011;9726;52.198;8.792;2022-12-10T04:47:33;102.13;;;43.60;;
19187;SDS011;9726;52.198;8.792;2022-12-10T04:50:01;100.60;;;45.63;;
19187;SDS011;9726;52.198;8.792;2022-12-10T04:52:29;102.60;;;44.40;;
19187;SDS011;9726;52.198;8.792;2022-12-10T04:54:56;98.90;;;42.97;;
19187;SDS011;9726;52.198;8.792;2022-12-10T04:57:24;91.40;;;40.37;;
19187;SDS011;9726;52.198;8.792;2022-12-10T04:59:51;91.10;;;40.00;;
19187;SDS011;9726;52.198;8.792;2022-12-10T05:02:19;84.57;;;40.43;;
19187;SDS011;9726;52.198;8.792;2022-12-10T05:04:47;96.43;;;41.57;;
19187;SDS011;9726;52.198;8.792;2022-12-10T05:07:15;89.80;;;38.87;;
19187;SDS011;9726;52.198;8.792;2022-12-10T05:09:43;90.13;;;40.10;;
19187;SDS011;9726;52.198;8.792;2022-12-10T05:12:10;86.73;;;39.73;;
19187;SDS011;9726;52.198;8.792;2022-12-10T05:14:38;82.90;;;39.33;;
19187;SDS011;9726;52.198;8.792;2022-12-10T05:17:05;88.40;;;37.97;;
19187;SDS011;9726;52.198;8.792;2022-12-10T05:19:32;96.03;;;39.17;;
19187;SDS011;9726;52.198;8.792;2022-12-10T05:22:00;82.83;;;38.53;;
19187;SDS011;9726;52.198;8.792;2022-12-10T05:24:46;82.53;;;37.60;;
19187;SDS011;9726;52.198;8.792;2022-12-10T05:27:13;86.43;;;38.87;;
19187;SDS011;9726;52.198;8.792;2022-12-10T05:29:42;79.23;;;40.03;;
19187;SDS011;9726;52.198;8.792;2022-12-10T05:32:09;79.60;;;37.67;;
19187;SDS011;9726;52.198;8.792;2022-12-10T05:34:37;84.20;;;38.37;;
19187;SDS011;9726;52.198;8.792;2022-12-10T05:37:04;86.83;;;39.67;;
19187;SDS011;9726;52.198;8.792;2022-12-10T05:39:31;81.00;;;37.87;;
19187;SDS011;9726;52.198;8.792;2022-12-10T05:41:59;77.00;;;37.00;;
19187;SDS011;9726;52.198;8.792;2022-12-10T05:44:26;83.93;;;35.77;;
19187;SDS011;9726;52.198;8.792;2022-12-10T05:46:54;74.87;;;36.40;;
19187;SDS011;9726;52.198;8.792;2022-12-10T05:49:21;76.47;;;35.83;;
19187;SDS011;9726;52.198;8.792;2022-12-10T05:51:49;81.33;;;37.87;;
19187;SDS011;9726;52.198;8.792;2022-12-10T05:54:16;78.17;;;37.70;;
19187;SDS011;9726;52.198;8.792;2022-12-10T05:56:44;78.17;;;37.07;;
19187;SDS011;9726;52.198;8.792;2022-12-10T05:59:11;74.20;;;36.40;;
19187;SDS011;9726;52.198;8.792;2022-12-10T06:01:43;79.73;;;36.87;;
19187;SDS011;9726;52.198;8.792;2022-12-10T06:04:10;75.63;;;37.83;;
19187;SDS011;9726;52.198;8.792;2022-12-10T06:06:38;74.50;;;36.20;;
19187;SDS011;9726;52.198;8.792;2022-12-10T06:09:07;80.13;;;37.60;;
19187;SDS011;9726;52.198;8.792;2022-12-10T06:11:34;75.13;;;37.70;;
19187;SDS011;9726;52.198;8.792;2022-12-10T06:14:02;76.93;;;35.93;;
19187;SDS011;9726;52.198;8.792;2022-12-10T06:16:29;72.47;;;37.13;;
19187;SDS011;9726;52.198;8.792;2022-12-10T06:18:57;80.70;;;37.87;;
19187;SDS011;9726;52.198;8.792;2022-12-10T06:21:25;79.83;;;36.80;;
19187;SDS011;9726;52.198;8.792;2022-12-10T06:23:52;75.63;;;38.57;;
19187;SDS011;9726;52.198;8.792;2022-12-10T06:26:22;74.43;;;36.20;;
19187;SDS011;9726;52.198;8.792;2022-12-10T06:28:50;75.53;;;36.10;;
19187;SDS011;9726;52.198;8.792;2022-12-10T06:31:17;79.57;;;35.43;;
19187;SDS011;9726;52.198;8.792;2022-12-10T06:33:45;80.80;;;35.57;;
19187;SDS011;9726;52.198;8.792;2022-12-10T06:36:14;80.17;;;36.03;;
19187;SDS011;9726;52.198;8.792;2022-12-10T06:38:42;78.40;;;34.13;;
19187;SDS011;9726;52.198;8.792;2022-12-10T06:41:11;77.53;;;36.03;;
19187;SDS011;9726;52.198;8.792;2022-12-10T06:43:39;79.33;;;32.90;;
19187;SDS011;9726;52.198;8.792;2022-12-10T06:46:17;74.53;;;32.93;;
19187;SDS011;9726;52.198;8.792;2022-12-10T06:48:46;74.23;;;33.73;;
19187;SDS011;9726;52.198;8.792;2022-12-10T06:51:13;81.27;;;35.97;;
19187;SDS011;9726;52.198;8.792;2022-12-10T06:53:41;74.70;;;33.10;;
19187;SDS011;9726;52.198;8.792;2022-12-10T06:56:12;73.97;;;33.40;;
19187;SDS011;9726;52.198;8.792;2022-12-10T06:58:40;83.97;;;34.33;;
19187;SDS011;9726;52.198;8.792;2022-12-10T07:01:15;71.13;;;32.27;;
19187;SDS011;9726;52.198;8.792;2022-12-10T07:03:43;78.60;;;33.07;;
19187;SDS011;9726;52.198;8.792;2022-12-10T07:06:11;72.87;;;33.23;;
19187;SDS011;9726;52.198;8.792;2022-12-10T07:08:39;72.73;;;34.07;;
19187;SDS011;9726;52.198;8.792;2022-12-10T07:11:07;86.10;;;36.13;;
19187;SDS011;9726;52.198;8.792;2022-12-10T07:13:35;70.43;;;32.93;;
19187;SDS011;9726;52.198;8.792;2022-12-10T07:16:03;78.17;;;35.17;;
19187;SDS011;9726;52.198;8.792;2022-12-10T07:18:38;81.30;;;34.00;;
19187;SDS011;9726;52.198;8.792;2022-12-10T07:21:19;74.87;;;34.70;;
19187;SDS011;9726;52.198;8.792;2022-12-10T07:23:47;83.00;;;35.33;;
19187;SDS011;9726;52.198;8.792;2022-12-10T07:26:14;75.73;;;33.00;;
19187;SDS011;9726;52.198;8.792;2022-12-10T07:28:42;78.43;;;34.03;;
19187;SDS011;9726;52.198;8.792;2022-12-10T07:31:18;80.00;;;35.60;;
19187;SDS011;9726;52.198;8.792;2022-12-10T07:33:46;72.73;;;33.93;;
19187;SDS011;9726;52.198;8.792;2022-12-10T07:36:14;81.03;;;34.73;;
19187;SDS011;9726;52.198;8.792;2022-12-10T07:38:41;73.03;;;34.77;;
19187;SDS011;9726;52.198;8.792;2022-12-10T07:41:10;73.80;;;36.37;;
19187;SDS011;9726;52.198;8.792;2022-12-10T07:43:38;73.13;;;32.90;;
19187;SDS011;9726;52.198;8.792;2022-12-10T07:46:14;76.60;;;34.63;;
19187;SDS011;9726;52.198;8.792;2022-12-10T07:48:42;74.73;;;34.17;;
19187;SDS011;9726;52.198;8.792;2022-12-10T07:51:10;71.77;;;34.47;;
19187;SDS011;9726;52.198;8.792;2022-12-10T07:53:38;66.00;;;32.40;;
19187;SDS011;9726;52.198;8.792;2022-12-10T07:56:06;76.43;;;31.77;;
19187;SDS011;9726;52.198;8.792;2022-12-10T07:58:34;81.37;;;36.17;;
19187;SDS011;9726;52.198;8.792;2022-12-10T08:01:12;71.40;;;35.63;;
19187;SDS011;9726;52.198;8.792;2022-12-10T08:03:39;66.83;;;33.13;;
19187;SDS011;9726;52.198;8.792;2022-12-10T08:06:08;72.70;;;32.37;;
19187;SDS011;9726;52.198;8.792;2022-12-10T08:08:37;170.57;;;36.07;;
19187;SDS011;9726;52.198;8.792;2022-12-10T08:11:05;117.00;;;35.77;;
19187;SDS011;9726;52.198;8.792;2022-12-10T08:13:33;87.82;;;40.90;;
19187;SDS011;9726;52.198;8.792;2022-12-10T08:18:33;81.30;;;36.30;;
19187;SDS011;9726;52.198;8.792;2022-12-10T08:21:14;84.03;;;36.13;;
19187;SDS011;9726;52.198;8.792;2022-12-10T08:23:42;222.53;;;39.97;;
19187;SDS011;9726;52.198;8.792;2022-12-10T08:26:21;385.97;;;48.70;;
19187;SDS011;9726;52.198;8.792;2022-12-10T08:28:49;79.07;;;35.20;;
19187;SDS011;9726;52.198;8.792;2022-12-10T08:31:17;81.43;;;34.73;;
19187;SDS011;9726;52.198;8.792;2022-12-10T08:33:45;84.87;;;35.43;;
19187;SDS011;9726;52.198;8.792;2022-12-10T08:36:13;84.27;;;36.03;;
19187;SDS011;9726;52.198;8.792;2022-12-10T08:38:41;82.50;;;33.83;;
19187;SDS011;9726;52.198;8.792;2022-12-10T08:41:10;128.93;;;37.57;;
19187;SDS011;9726;52.198;8.792;2022-12-10T08:43:38;90.00;;;34.63;;
19187;SDS011;9726;52.198;8.792;2022-12-10T08:46:05;113.33;;;38.10;;
19187;SDS011;9726;52.198;8.792;2022-12-10T08:48:35;79.83;;;33.20;;
19187;SDS011;9726;52.198;8.792;2022-12-10T08:51:03;81.33;;;35.10;;
19187;SDS011;9726;52.198;8.792;2022-12-10T08:53:31;86.07;;;33.43;;
19187;SDS011;9726;52.198;8.792;2022-12-10T08:55:59;86.00;;;34.70;;
19187;SDS011;9726;52.198;8.792;2022-12-10T08:58:26;84.63;;;32.47;;
19187;SDS011;9726;52.198;8.792;2022-12-10T09:00:54;83.83;;;34.57;;
19187;SDS011;9726;52.198;8.792;2022-12-10T09:03:22;80.77;;;34.70;;
19187;SDS011;9726;52.198;8.792;2022-12-10T09:05:50;86.13;;;36.00;;
19187;SDS011;9726;52.198;8.792;2022-12-10T09:08:17;92.83;;;32.57;;
19187;SDS011;9726;52.198;8.792;2022-12-10T09:10:45;83.33;;;33.00;;
19187;SDS011;9726;52.198;8.792;2022-12-10T09:13:12;75.57;;;31.87;;
19187;SDS011;9726;52.198;8.792;2022-12-10T09:15:40;84.43;;;34.10;;
19187;SDS011;9726;52.198;8.792;2022-12-10T09:18:07;83.23;;;34.20;;
19187;SDS011;9726;52.198;8.792;2022-12-10T09:20:36;80.47;;;32.47;;
19187;SDS011;9726;52.198;8.792;2022-12-10T09:23:04;76.90;;;32.57;;
19187;SDS011;9726;52.198;8.792;2022-12-10T09:25:31;82.93;;;33.10;;
19187;SDS011;9726;52.198;8.792;2022-12-10T09:27:59;84.60;;;35.23;;
19187;SDS011;9726;52.198;8.792;2022-12-10T09:30:26;81.80;;;33.17;;
19187;SDS011;9726;52.198;8.792;2022-12-10T09:32:54;73.80;;;30.83;;
19187;SDS011;9726;52.198;8.792;2022-12-10T09:35:21;76.47;;;33.23;;
19187;SDS011;9726;52.198;8.792;2022-12-10T09:37:49;84.53;;;33.70;;
19187;SDS011;9726;52.198;8.792;2022-12-10T09:40:17;72.90;;;31.47;;
19187;SDS011;9726;52.198;8.792;2022-12-10T09:42:51;84.77;;;33.80;;
19187;SDS011;9726;52.198;8.792;2022-12-10T09:50:29;75.57;;;33.40;;
19187;SDS011;9726;52.198;8.792;2022-12-10T09:52:59;73.23;;;32.00;;
19187;SDS011;9726;52.198;8.792;2022-12-10T09:55:37;80.93;;;32.83;;
19187;SDS011;9726;52.198;8.792;2022-12-10T09:58:05;76.17;;;32.67;;
19187;SDS011;9726;52.198;8.792;2022-12-10T10:00:36;79.27;;;31.07;;
19187;SDS011;9726;52.198;8.792;2022-12-10T10:03:04;79.27;;;34.63;;
19187;SDS011;9726;52.198;8.792;2022-12-10T10:05:37;77.07;;;33.17;;
19187;SDS011;9726;52.198;8.792;2022-12-10T10:08:06;84.60;;;33.77;;
19187;SDS011;9726;52.198;8.792;2022-12-10T10:10:35;73.97;;;30.73;;
19187;SDS011;9726;52.198;8.792;2022-12-10T10:15:36;76.43;;;34.03;;
19187;SDS011;9726;52.198;8.792;2022-12-10T10:18:48;80.10;;;34.03;;
19187;SDS011;9726;52.198;8.792;2022-12-10T10:20:55;72.20;;;32.03;;
19187;SDS011;9726;52.198;8.792;2022-12-10T10:23:23;67.70;;;31.73;;
19187;SDS011;9726;52.198;8.792;2022-12-10T10:25:50;71.77;;;30.80;;
19187;SDS011;9726;52.198;8.792;2022-12-10T10:28:19;63.20;;;28.43;;
19187;SDS011;9726;52.198;8.792;2022-12-10T10:30:47;55.50;;;27.80;;
19187;SDS011;9726;52.198;8.792;2022-12-10T10:33:15;47.30;;;24.13;;
19187;SDS011;9726;52.198;8.792;2022-12-10T10:38:15;34.27;;;18.13;;
19187;SDS011;9726;52.198;8.792;2022-12-10T10:40:44;35.77;;;18.57;;
19187;SDS011;9726;52.198;8.792;2022-12-10T10:43:14;33.40;;;17.37;;
19187;SDS011;9726;52.198;8.792;2022-12-10T10:45:42;53.73;;;23.77;;
19187;SDS011;9726;52.198;8.792;2022-12-10T10:48:16;47.00;;;22.53;;
19187;SDS011;9726;52.198;8.792;2022-12-10T10:55:54;55.37;;;24.20;;
19187;SDS011;9726;52.198;8.792;2022-12-10T10:58:23;58.30;;;23.83;;
19187;SDS011;9726;52.198;8.792;2022-12-10T11:00:55;56.53;;;23.83;;
19187;SDS011;9726;52.198;8.792;2022-12-10T11:03:23;58.97;;;25.83;;
19187;SDS011;9726;52.198;8.792;2022-12-10T11:05:51;55.40;;;24.73;;
19187;SDS011;9726;52.198;8.792;2022-12-10T11:08:19;50.83;;;23.50;;
19187;SDS011;9726;52.198;8.792;2022-12-10T11:10:51;51.00;;;23.03;;
19187;SDS011;9726;52.198;8.792;2022-12-10T11:13:21;49.43;;;20.97;;
19187;SDS011;9726;52.198;8.792;2022-12-10T11:15:57;19.63;;;11.20;;
19187;SDS011;9726;52.198;8.792;2022-12-10T11:18:32;18.50;;;10.73;;
19187;SDS011;9726;52.198;8.792;2022-12-10T11:21:02;24.67;;;11.93;;
19187;SDS011;9726;52.198;8.792;2022-12-10T11:23:38;31.83;;;14.50;;
19187;SDS011;9726;52.198;8.792;2022-12-10T11:28:48;20.47;;;10.30;;
19187;SDS011;9726;52.198;8.792;2022-12-10T11:31:24;17.40;;;9.83;;
19187;SDS011;9726;52.198;8.792;2022-12-10T11:34:06;21.83;;;10.47;;
19187;SDS011;9726;52.198;8.792;2022-12-10T11:36:54;15.97;;;9.87;;
19187;SDS011;9726;52.198;8.792;2022-12-10T11:49:56;22.90;;;11.10;;
19187;SDS011;9726;52.198;8.792;2022-12-10T11:52:36;19.77;;;11.17;;
19187;SDS011;9726;52.198;8.792;2022-12-10T12:00:28;22.20;;;11.47;;
19187;SDS011;9726;52.198;8.792;2022-12-10T12:03:02;16.37;;;10.47;;
19187;SDS011;9726;52.198;8.792;2022-12-10T12:05:36;21.17;;;10.27;;
19187;SDS011;9726;52.198;8.792;2022-12-10T12:10:39;22.50;;;10.87;;
19187;SDS011;9726;52.198;8.792;2022-12-10T12:21:05;19.53;;;12.00;;
19187;SDS011;9726;52.198;8.792;2022-12-10T12:26:35;18.33;;;11.43;;
19187;SDS011;9726;52.198;8.792;2022-12-10T12:31:44;23.97;;;11.57;;
19187;SDS011;9726;52.198;8.792;2022-12-10T12:36:59;21.20;;;11.53;;
19187;SDS011;9726;52.198;8.792;2022-12-10T12:44:30;23.47;;;12.80;;
19187;SDS011;9726;52.198;8.792;2022-12-10T12:47:02;24.30;;;12.63;;
19187;SDS011;9726;52.198;8.792;2022-12-10T12:49:35;23.70;;;12.00;;
19187;SDS011;9726;52.198;8.792;2022-12-10T12:52:09;19.30;;;10.93;;
19187;SDS011;9726;52.198;8.792;2022-12-10T12:54:41;23.60;;;12.37;;
19187;SDS011;9726;52.198;8.792;2022-12-10T12:57:20;18.17;;;11.03;;
19187;SDS011;9726;52.198;8.792;2022-12-10T12:59:57;21.73;;;12.10;;
19187;SDS011;9726;52.198;8.792;2022-12-10T13:05:18;23.10;;;13.20;;
19187;SDS011;9726;52.198;8.792;2022-12-10T13:10:43;23.93;;;12.40;;
19187;SDS011;9726;52.198;8.792;2022-12-10T13:15:44;22.30;;;11.90;;
19187;SDS011;9726;52.198;8.792;2022-12-10T13:20:45;20.73;;;12.00;;
19187;SDS011;9726;52.198;8.792;2022-12-10T13:41:31;27.40;;;12.13;;
19187;SDS011;9726;52.198;8.792;2022-12-10T13:44:39;22.50;;;12.73;;
19187;SDS011;9726;52.198;8.792;2022-12-10T13:49:56;24.43;;;13.90;;
19187;SDS011;9726;52.198;8.792;2022-12-10T13:52:35;22.60;;;12.33;;
19187;SDS011;9726;52.198;8.792;2022-12-10T13:58:00;24.30;;;13.53;;
19187;SDS011;9726;52.198;8.792;2022-12-10T14:00:31;28.07;;;13.63;;
19187;SDS011;9726;52.198;8.792;2022-12-10T14:08:32;29.23;;;14.03;;
19187;SDS011;9726;52.198;8.792;2022-12-10T14:11:00;24.80;;;11.40;;
19187;SDS011;9726;52.198;8.792;2022-12-10T14:13:33;23.90;;;12.90;;
19187;SDS011;9726;52.198;8.792;2022-12-10T14:16:03;22.20;;;12.93;;
19187;SDS011;9726;52.198;8.792;2022-12-10T14:18:32;32.67;;;14.83;;
19187;SDS011;9726;52.198;8.792;2022-12-10T14:21:02;24.90;;;14.17;;
19187;SDS011;9726;52.198;8.792;2022-12-10T14:23:32;28.50;;;13.80;;
19187;SDS011;9726;52.198;8.792;2022-12-10T14:26:04;29.17;;;15.10;;
19187;SDS011;9726;52.198;8.792;2022-12-10T14:28:32;25.10;;;13.93;;
19187;SDS011;9726;52.198;8.792;2022-12-10T14:31:00;33.17;;;16.20;;
19187;SDS011;9726;52.198;8.792;2022-12-10T14:33:27;29.53;;;15.57;;
19187;SDS011;9726;52.198;8.792;2022-12-10T14:35:55;26.10;;;14.10;;
19187;SDS011;9726;52.198;8.792;2022-12-10T14:38:27;27.20;;;14.50;;
19187;SDS011;9726;52.198;8.792;2022-12-10T14:40:56;23.97;;;13.50;;
19187;SDS011;9726;52.198;8.792;2022-12-10T14:43:24;27.57;;;14.53;;
19187;SDS011;9726;52.198;8.792;2022-12-10T14:45:58;24.77;;;14.03;;
19187;SDS011;9726;52.198;8.792;2022-12-10T14:48:26;25.90;;;13.57;;
19187;SDS011;9726;52.198;8.792;2022-12-10T14:50:55;25.57;;;14.93;;
19187;SDS011;9726;52.198;8.792;2022-12-10T14:53:25;25.67;;;14.83;;
19187;SDS011;9726;52.198;8.792;2022-12-10T14:56:04;31.07;;;16.27;;
19187;SDS011;9726;52.198;8.792;2022-12-10T15:01:16;28.87;;;14.67;;
19187;SDS011;9726;52.198;8.792;2022-12-10T15:03:46;31.33;;;16.20;;
19187;SDS011;9726;52.198;8.792;2022-12-10T15:06:15;27.90;;;14.13;;
19187;SDS011;9726;52.198;8.792;2022-12-10T15:08:43;31.53;;;14.10;;
19187;SDS011;9726;52.198;8.792;2022-12-10T15:11:18;23.90;;;12.77;;
19187;SDS011;9726;52.198;8.792;2022-12-10T15:13:50;30.37;;;16.17;;
19187;SDS011;9726;52.198;8.792;2022-12-10T15:16:30;26.27;;;13.60;;
19187;SDS011;9726;52.198;8.792;2022-12-10T15:21:59;33.03;;;14.70;;
19187;SDS011;9726;52.198;8.792;2022-12-10T15:24:28;27.90;;;13.60;;
19187;SDS011;9726;52.198;8.792;2022-12-10T15:27:00;25.23;;;14.20;;
19187;SDS011;9726;52.198;8.792;2022-12-10T15:29:32;28.70;;;16.17;;
19187;SDS011;9726;52.198;8.792;2022-12-10T15:32:03;24.83;;;13.73;;
19187;SDS011;9726;52.198;8.792;2022-12-10T15:34:39;30.53;;;15.43;;
19187;SDS011;9726;52.198;8.792;2022-12-10T15:37:13;35.37;;;15.93;;
19187;SDS011;9726;52.198;8.792;2022-12-10T15:40:00;25.80;;;14.10;;
19187;SDS011;9726;52.198;8.792;2022-12-10T15:45:08;51.13;;;27.40;;
19187;SDS011;9726;52.198;8.792;2022-12-10T15:47:38;31.33;;;17.07;;
19187;SDS011;9726;52.198;8.792;2022-12-10T15:50:05;25.83;;;13.70;;
19187;SDS011;9726;52.198;8.792;2022-12-10T15:52:33;32.97;;;16.47;;
19187;SDS011;9726;52.198;8.792;2022-12-10T15:55:02;31.57;;;16.97;;
19187;SDS011;9726;52.198;8.792;2022-12-10T15:57:33;28.97;;;16.73;;
19187;SDS011;9726;52.198;8.792;2022-12-10T16:00:04;30.73;;;17.60;;
19187;SDS011;9726;52.198;8.792;2022-12-10T16:02:56;33.40;;;17.33;;
19187;SDS011;9726;52.198;8.792;2022-12-10T16:05:25;39.37;;;18.83;;
19187;SDS011;9726;52.198;8.792;2022-12-10T16:07:56;35.87;;;19.90;;
19187;SDS011;9726;52.198;8.792;2022-12-10T16:10:25;38.97;;;19.03;;
19187;SDS011;9726;52.198;8.792;2022-12-10T16:12:57;34.73;;;19.20;;
19187;SDS011;9726;52.198;8.792;2022-12-10T16:15:26;37.27;;;18.93;;
19187;SDS011;9726;52.198;8.792;2022-12-10T16:17:55;34.77;;;18.63;;
19187;SDS011;9726;52.198;8.792;2022-12-10T16:20:26;37.53;;;20.53;;
19187;SDS011;9726;52.198;8.792;2022-12-10T16:22:54;35.30;;;19.27;;
19187;SDS011;9726;52.198;8.792;2022-12-10T16:25:23;38.93;;;20.63;;
19187;SDS011;9726;52.198;8.792;2022-12-10T16:27:51;38.10;;;20.80;;
19187;SDS011;9726;52.198;8.792;2022-12-10T16:30:19;39.57;;;19.80;;
19187;SDS011;9726;52.198;8.792;2022-12-10T16:32:47;36.43;;;19.67;;
19187;SDS011;9726;52.198;8.792;2022-12-10T16:35:15;43.70;;;20.23;;
19187;SDS011;9726;52.198;8.792;2022-12-10T16:37:43;38.60;;;20.20;;
19187;SDS011;9726;52.198;8.792;2022-12-10T16:40:13;43.33;;;20.07;;
19187;SDS011;9726;52.198;8.792;2022-12-10T16:42:41;40.90;;;19.87;;
19187;SDS011;9726;52.198;8.792;2022-12-10T16:45:16;33.37;;;20.10;;
19187;SDS011;9726;52.198;8.792;2022-12-10T16:47:43;38.87;;;21.20;;
19187;SDS011;9726;52.198;8.792;2022-12-10T16:50:11;42.33;;;21.60;;
19187;SDS011;9726;52.198;8.792;2022-12-10T16:52:40;38.53;;;22.73;;
19187;SDS011;9726;52.198;8.792;2022-12-10T16:55:11;40.53;;;20.53;;